createdAt,value
2016-03-01T00:01:12.390Z,0
2016-03-01T00:06:12.341Z,0
2016-03-01T00:11:12.245Z,0
2016-03-01T00:16:12.148Z,0
2016-03-01T00:21:12.101Z,0
2016-03-01T00:26:12.051Z,0
2016-03-01T00:31:11.786Z,0
2016-03-01T00:36:11.816Z,0
2016-03-01T00:41:11.751Z,0
2016-03-01T00:46:11.655Z,0
2016-03-01T00:51:11.590Z,0
2016-03-01T00:56:11.513Z,0
2016-03-01T01:01:11.417Z,0
2016-03-01T01:06:11.306Z,0
2016-03-01T01:11:11.054Z,0
2016-03-01T01:16:11.177Z,0
2016-03-01T01:21:11.050Z,0
2016-03-01T01:26:10.954Z,0
2016-03-01T01:31:10.889Z,0
2016-03-01T01:36:10.778Z,0
2016-03-01T01:41:10.698Z,0
2016-03-01T01:46:10.617Z,0
2016-03-01T01:51:10.505Z,0
2016-03-01T01:56:10.456Z,0
2016-03-01T02:01:10.391Z,0
2016-03-01T02:06:10.262Z,0
2016-03-01T02:11:10.197Z,0
2016-03-01T02:16:10.117Z,0
2016-03-01T02:21:10.017Z,0
2016-03-01T02:26:09.979Z,0
2016-03-01T02:31:09.572Z,0
2016-03-01T02:36:09.726Z,0
2016-03-01T02:41:09.629Z,0
2016-03-01T02:46:09.580Z,0
2016-03-01T02:51:09.484Z,0
2016-03-01T02:56:09.404Z,0
2016-03-01T03:01:09.168Z,0
2016-03-01T03:06:09.181Z,0
2016-03-01T03:11:09.101Z,0
2016-03-01T03:16:09.020Z,0
2016-03-01T03:21:08.908Z,0
2016-03-01T03:26:08.814Z,0
2016-03-01T03:31:08.763Z,0
2016-03-01T03:36:08.652Z,0
2016-03-01T03:41:08.557Z,0
2016-03-01T03:46:08.460Z,0
2016-03-01T03:51:08.365Z,0
2016-03-01T03:56:08.315Z,0
2016-03-01T04:01:08.219Z,0
2016-03-01T04:06:07.655Z,0
2016-03-01T04:11:08.069Z,0
2016-03-01T04:16:07.958Z,0
2016-03-01T04:21:07.863Z,0
2016-03-01T04:26:07.751Z,0
2016-03-01T04:31:07.670Z,0
2016-03-01T04:36:07.559Z,0
2016-03-01T04:41:07.463Z,0
2016-03-01T04:46:07.368Z,0
2016-03-01T04:51:07.176Z,0
2016-03-01T04:56:07.206Z,0
2016-03-01T05:01:07.095Z,0
2016-03-01T05:06:07.046Z,0
2016-03-01T05:11:06.949Z,0
2016-03-01T05:16:06.838Z,0
2016-03-01T05:21:06.750Z,0
2016-03-01T05:26:06.675Z,0
2016-03-01T05:31:06.580Z,0
2016-03-01T05:36:06.526Z,0
2016-03-01T05:41:06.460Z,0
2016-03-01T05:46:06.222Z,0
2016-03-01T05:51:06.344Z,0
2016-03-01T05:56:06.249Z,0
2016-03-01T06:01:06.199Z,0
2016-03-01T06:06:06.134Z,0
2016-03-01T06:11:06.085Z,0
2016-03-01T06:16:06.036Z,0
2016-03-01T06:21:05.988Z,0
2016-03-01T06:26:05.891Z,0
2016-03-01T06:31:05.843Z,0
2016-03-01T06:36:05.793Z,5
2016-03-01T06:41:05.681Z,5
2016-03-01T06:46:05.617Z,5
2016-03-01T06:51:05.583Z,10
2016-03-01T06:56:05.504Z,10
2016-03-01T07:01:05.438Z,10
2016-03-01T07:06:05.374Z,15
2016-03-01T07:11:05.309Z,15
2016-03-01T07:16:05.229Z,20
2016-03-01T07:21:05.180Z,25
2016-03-01T07:26:05.115Z,25
2016-03-01T07:31:05.051Z,30
2016-03-01T07:36:04.986Z,30
2016-03-01T07:41:04.921Z,35
2016-03-01T07:46:04.888Z,35
2016-03-01T07:51:04.776Z,35
2016-03-01T07:56:04.696Z,40
2016-03-01T08:01:04.646Z,40
2016-03-01T08:06:04.567Z,45
2016-03-01T08:11:04.518Z,50
2016-03-01T08:16:04.453Z,50
2016-03-01T08:21:04.420Z,50
2016-03-01T08:26:04.339Z,50
2016-03-01T08:31:04.274Z,50
2016-03-01T08:36:04.194Z,45
2016-03-01T08:41:04.129Z,40
2016-03-01T08:46:04.080Z,40
2016-03-01T08:51:04.016Z,45
2016-03-01T08:56:03.951Z,50
2016-03-01T09:01:03.902Z,55
2016-03-01T09:06:03.821Z,60
2016-03-01T09:11:03.772Z,70
2016-03-01T09:16:03.739Z,65
2016-03-01T09:21:03.659Z,65
2016-03-01T09:26:03.595Z,65
2016-03-01T09:31:03.561Z,60
2016-03-01T09:36:03.449Z,60
2016-03-01T09:41:03.229Z,65
2016-03-01T09:46:03.336Z,65
2016-03-01T09:51:03.286Z,65
2016-03-01T09:56:03.206Z,70
2016-03-01T10:01:03.141Z,65
2016-03-01T10:06:03.077Z,65
2016-03-01T10:11:03.028Z,65
2016-03-01T10:16:02.978Z,70
2016-03-01T10:21:02.898Z,70
2016-03-01T10:26:02.849Z,75
2016-03-01T10:31:02.785Z,75
2016-03-01T10:36:02.735Z,75
2016-03-01T10:41:02.718Z,75
2016-03-01T10:46:02.763Z,80
2016-03-01T10:51:02.557Z,75
2016-03-01T10:56:02.508Z,75
2016-03-01T11:01:02.443Z,75
2016-03-01T11:06:02.394Z,75
2016-03-01T11:11:02.315Z,75
2016-03-01T11:16:02.249Z,70
2016-03-01T11:21:02.029Z,65
2016-03-01T11:26:02.104Z,55
2016-03-01T11:31:02.055Z,65
2016-03-01T11:36:01.990Z,60
2016-03-01T11:41:01.910Z,65
2016-03-01T11:46:01.862Z,60
2016-03-01T11:51:01.781Z,60
2016-03-01T11:56:01.732Z,60
2016-03-01T12:01:01.479Z,60
2016-03-01T12:06:01.587Z,65
2016-03-01T12:11:01.522Z,55
2016-03-01T12:16:01.443Z,60
2016-03-01T12:21:01.362Z,50
2016-03-01T12:26:01.267Z,50
2016-03-01T12:31:01.217Z,50
2016-03-01T12:36:01.153Z,45
2016-03-01T12:41:01.073Z,50
2016-03-01T12:46:01.008Z,50
2016-03-01T12:51:00.927Z,50
2016-03-01T12:56:00.848Z,50
2016-03-01T13:01:00.798Z,50
2016-03-01T13:06:00.703Z,40
2016-03-01T13:11:00.638Z,45
2016-03-01T13:16:00.542Z,35
2016-03-01T13:21:00.509Z,35
2016-03-01T13:26:00.413Z,30
2016-03-01T13:31:00.363Z,30
2016-03-01T13:36:00.315Z,30
2016-03-01T13:40:59.469Z,25
2016-03-01T13:46:00.143Z,20
2016-03-01T13:51:00.063Z,25
2016-03-01T13:56:00.045Z,25
2016-03-01T14:00:59.949Z,30
2016-03-01T14:05:59.884Z,20
2016-03-01T14:10:59.788Z,20
2016-03-01T14:15:59.724Z,15
2016-03-01T14:43:44.151Z,60
2016-03-01T14:48:43.974Z,55
2016-03-01T14:53:43.878Z,35
2016-03-01T14:58:43.783Z,55
2016-03-01T15:03:43.702Z,40
2016-03-01T15:08:43.560Z,25
2016-03-01T15:13:43.463Z,30
2016-03-01T15:18:43.383Z,20
2016-03-01T15:23:43.271Z,15
2016-03-01T15:28:43.159Z,15
2016-03-01T15:33:44.783Z,20
2016-03-01T15:39:16.299Z,15
2016-03-01T15:43:44.733Z,15
2016-03-01T15:48:52.527Z,10
2016-03-01T15:53:47.807Z,10
2016-03-01T15:58:44.257Z,10
2016-03-01T16:03:42.443Z,10
2016-03-01T16:08:42.315Z,5
2016-03-01T16:13:42.236Z,10
2016-03-01T16:18:42.156Z,5
2016-03-01T16:23:42.013Z,10
2016-03-01T16:28:42.026Z,10
2016-03-01T16:33:41.805Z,5
2016-03-01T16:38:41.724Z,10
2016-03-01T16:43:41.629Z,20
2016-03-01T16:48:41.502Z,5
2016-03-01T16:53:41.438Z,10
2016-03-01T16:58:41.343Z,5
2016-03-01T17:03:41.231Z,5
2016-03-01T17:08:40.963Z,0
2016-03-01T17:13:41.024Z,0
2016-03-01T17:18:42.583Z,0
2016-03-01T17:23:41.957Z,0
2016-03-01T17:28:42.235Z,0
2016-03-01T17:33:40.592Z,0
2016-03-01T17:38:40.481Z,0
2016-03-01T17:43:40.354Z,0
2016-03-01T17:48:40.289Z,0
2016-03-01T17:53:40.174Z,0
2016-03-01T17:58:39.923Z,0
2016-03-01T18:03:39.967Z,0
2016-03-01T18:08:39.872Z,0
2016-03-01T18:13:39.792Z,0
2016-03-01T18:18:39.680Z,0
2016-03-01T18:23:38.835Z,0
2016-03-01T18:28:39.472Z,0
2016-03-01T18:33:39.392Z,0
2016-03-01T18:38:39.296Z,0
2016-03-01T18:43:39.184Z,0
2016-03-01T18:48:39.058Z,0
2016-03-01T18:53:38.961Z,0
2016-03-01T18:58:38.896Z,0
2016-03-01T19:03:38.801Z,0
2016-03-01T19:08:38.689Z,0
2016-03-01T19:13:38.594Z,0
2016-03-01T19:18:38.498Z,0
2016-03-01T19:23:38.402Z,0
2016-03-01T19:28:38.290Z,0
2016-03-01T19:33:37.913Z,0
2016-03-01T19:38:38.145Z,0
2016-03-01T19:43:38.018Z,0
2016-03-01T19:48:37.954Z,0
2016-03-01T19:53:37.841Z,0
2016-03-01T19:58:37.715Z,0
2016-03-01T20:03:37.618Z,0
2016-03-01T20:08:37.543Z,0
2016-03-01T20:13:37.416Z,0
2016-03-01T20:18:37.352Z,0
2016-03-01T20:23:37.240Z,0
2016-03-01T20:28:37.175Z,0
2016-03-01T20:33:37.063Z,0
2016-03-01T20:38:37.104Z,0
2016-03-01T20:43:36.954Z,0
2016-03-01T20:48:36.766Z,0
2016-03-01T20:53:36.675Z,0
2016-03-01T20:58:36.611Z,0
2016-03-01T21:03:36.468Z,0
2016-03-01T21:08:36.365Z,0
2016-03-01T21:13:36.286Z,0
2016-03-01T21:18:36.189Z,0
2016-03-01T21:23:36.094Z,0
2016-03-01T21:28:36.013Z,0
2016-03-01T21:33:35.933Z,0
2016-03-01T21:38:35.854Z,0
2016-03-01T21:43:35.743Z,0
2016-03-01T21:48:35.646Z,0
2016-03-01T21:53:35.566Z,0
2016-03-01T21:58:35.470Z,0
2016-03-01T22:03:35.389Z,0
2016-03-01T22:08:35.292Z,0
2016-03-01T22:13:35.227Z,0
2016-03-01T22:18:35.084Z,0
2016-03-01T22:23:35.035Z,0
2016-03-01T22:28:34.784Z,0
2016-03-01T22:33:34.843Z,0
2016-03-01T22:38:34.811Z,0
2016-03-01T22:43:34.653Z,0
2016-03-01T22:48:34.604Z,0
2016-03-01T22:53:34.491Z,0
2016-03-01T22:58:34.411Z,0
2016-03-01T23:03:34.316Z,0
2016-03-01T23:08:34.220Z,0
2016-03-01T23:13:34.124Z,0
2016-03-01T23:18:34.106Z,0
2016-03-01T23:23:33.947Z,0
2016-03-01T23:28:33.899Z,0
2016-03-01T23:33:33.756Z,0
2016-03-01T23:38:33.643Z,0
2016-03-01T23:43:33.549Z,0
2016-03-01T23:48:33.277Z,0
2016-03-01T23:53:33.350Z,0
2016-03-01T23:58:33.285Z,0
